Time;durP1;ratioP1;P1;durP2;ratioP2;P2;SDS_P1;SDS_P2;PMS_P1;PMS_P2;Temp;Humidity;BMP_temperature;BMP_pressure;BME280_temperature;BME280_humidity;BME280_pressure;Samples;Min_cycle;Max_cycle;Signal;HPM_P1;HPM_P2
2022/09/04 00:01:56;;;;;;;;;;;12.70;99.90;;;;;;5138523;27;19912;-56
2022/09/04 00:04:41;;;;;;;;;;;12.50;99.90;;;;;;5104473;27;19923;-56
2022/09/04 00:07:25;;;;;;;;;;;12.50;99.90;;;;;;5124849;27;19945;-56
2022/09/04 00:10:10;;;;;;;;;;;12.30;99.90;;;;;;5104226;27;19950;-56
2022/09/04 00:12:54;;;;;;;;;;;12.30;99.90;;;;;;5149143;27;19972;-56
2022/09/04 00:15:36;;;;;;;;;;;12.20;99.90;;;;;;5104662;27;19920;-56
2022/09/04 00:18:22;;;;;;;;;;;12.20;99.90;;;;;;5124983;27;19912;-56
2022/09/04 00:21:06;;;;;;;;;;;12.20;99.90;;;;;;5124644;27;19912;-56
2022/09/04 00:23:51;;;;;;;;;;;12.20;99.90;;;;;;5125149;27;19925;-56
2022/09/04 00:26:39;;;;;;;;;;;12.10;99.90;;;;;;5106847;27;19919;-56
2022/09/04 00:29:22;;;;;;;;;;;12.00;99.90;;;;;;5124562;27;20303;-56
2022/09/04 00:32:08;;;;;;;;;;;12.10;99.90;;;;;;5125376;27;19915;-56
2022/09/04 00:35:08;;;;;;;;;;;12.20;99.90;;;;;;5125913;27;19919;-56
2022/09/04 00:37:50;;;;;;;;;;;12.30;99.90;;;;;;5113539;27;20270;-56
2022/09/04 00:40:32;;;;;;;;;;;12.40;99.90;;;;;;5124894;27;19912;-56
2022/09/04 00:43:24;;;;;;;;;;;12.50;99.90;;;;;;5125231;27;19912;-56
2022/09/04 00:46:13;;;;;;;;;;;12.60;99.90;;;;;;5084822;28;19913;-56
2022/09/04 00:49:13;;;;;;;;;;;12.60;99.90;;;;;;5124588;27;20368;-56
2022/09/04 00:51:57;;;;;;;;;;;12.70;99.90;;;;;;5125906;27;20286;-56
2022/09/04 00:54:52;;;;;;;;;;;12.60;99.90;;;;;;5124751;27;19918;-56
2022/09/04 00:58:04;;;;;;;;;;;12.60;99.90;;;;;;5115845;27;20262;-56
2022/09/04 01:00:45;;;;;;;;;;;12.50;99.90;;;;;;5104060;27;19926;-56
2022/09/04 01:03:32;;;;;;;;;;;12.40;99.90;;;;;;5125610;27;19912;-56
2022/09/04 01:06:19;;;;;;;;;;;12.30;99.90;;;;;;5125582;27;19911;-55
2022/09/04 01:09:16;;;;;;;;;;;12.20;99.90;;;;;;5104469;27;19927;-56
2022/09/04 01:12:01;;;;;;;;;;;12.10;99.90;;;;;;5125838;27;19918;-56
2022/09/04 01:14:45;;;;;;;;;;;12.00;99.90;;;;;;5104707;27;19946;-56
2022/09/04 01:17:27;;;;;;;;;;;12.10;99.90;;;;;;5124932;27;20217;-56
2022/09/04 01:20:12;;;;;;;;;;;12.30;99.90;;;;;;5124692;27;19918;-56
2022/09/04 01:23:08;;;;;;;;;;;12.50;99.90;;;;;;5125335;27;19911;-56
2022/09/04 01:26:06;;;;;;;;;;;12.60;99.90;;;;;;5124472;27;19949;-56
2022/09/04 01:28:58;;;;;;;;;;;12.70;99.90;;;;;;5124179;27;19922;-56
2022/09/04 01:31:43;;;;;;;;;;;12.80;99.90;;;;;;5125132;27;19912;-56
2022/09/04 01:34:34;;;;;;;;;;;12.80;99.90;;;;;;5125354;27;19915;-56
2022/09/04 01:37:20;;;;;;;;;;;12.80;99.90;;;;;;5097919;27;20184;-56
2022/09/04 01:40:05;;;;;;;;;;;12.80;99.90;;;;;;5124647;27;19916;-56
2022/09/04 01:42:49;;;;;;;;;;;12.80;99.90;;;;;;5124957;27;19920;-56
2022/09/04 01:45:33;;;;;;;;;;;12.90;99.90;;;;;;5125246;27;19911;-56
2022/09/04 01:48:16;;;;;;;;;;;12.90;99.90;;;;;;5085439;27;19920;-56
2022/09/04 01:50:59;;;;;;;;;;;13.00;99.90;;;;;;5094610;27;19953;-56
2022/09/04 01:53:42;;;;;;;;;;;13.00;99.90;;;;;;5124610;27;20195;-56
2022/09/04 01:56:25;;;;;;;;;;;12.90;99.90;;;;;;5104044;27;20262;-56
2022/09/04 01:59:10;;;;;;;;;;;12.90;99.90;;;;;;5123541;27;19916;-55
2022/09/04 02:01:53;;;;;;;;;;;12.90;99.90;;;;;;5114260;27;20584;-56
2022/09/04 02:04:37;;;;;;;;;;;13.00;99.90;;;;;;5124862;27;20348;-56
2022/09/04 02:07:20;;;;;;;;;;;13.00;99.90;;;;;;5115368;27;19926;-56
2022/09/04 02:10:04;;;;;;;;;;;13.10;99.90;;;;;;5083458;28;19913;-56
2022/09/04 02:12:49;;;;;;;;;;;13.10;99.90;;;;;;5124798;27;20409;-56
2022/09/04 02:15:35;;;;;;;;;;;13.10;99.90;;;;;;5124663;27;19924;-56
2022/09/04 02:18:19;;;;;;;;;;;13.10;99.90;;;;;;5109583;27;19912;-56
2022/09/04 02:21:02;;;;;;;;;;;13.10;99.90;;;;;;5124903;27;19911;-54
2022/09/04 02:23:45;;;;;;;;;;;13.20;99.90;;;;;;5125119;27;19916;-56
2022/09/04 02:26:29;;;;;;;;;;;13.20;99.90;;;;;;5124592;27;19916;-57
2022/09/04 02:29:15;;;;;;;;;;;13.20;99.90;;;;;;5124094;27;20089;-56
2022/09/04 02:32:00;;;;;;;;;;;13.30;99.90;;;;;;5104408;27;20474;-57
2022/09/04 02:34:42;;;;;;;;;;;13.30;99.90;;;;;;5099975;27;20341;-55
2022/09/04 02:37:28;;;;;;;;;;;13.20;99.90;;;;;;5095331;27;19927;-56
2022/09/04 02:40:13;;;;;;;;;;;13.30;99.90;;;;;;5123640;27;19918;-56
2022/09/04 02:43:05;;;;;;;;;;;13.30;99.90;;;;;;5145030;27;19917;-55
2022/09/04 02:45:50;;;;;;;;;;;13.40;99.90;;;;;;5124814;27;19920;-56
2022/09/04 02:48:39;;;;;;;;;;;13.30;99.90;;;;;;5106639;27;19912;-55
2022/09/04 02:51:23;;;;;;;;;;;13.30;99.90;;;;;;5105057;27;19916;-54
2022/09/04 02:54:14;;;;;;;;;;;13.30;99.90;;;;;;5125272;27;20393;-56
2022/09/04 02:57:00;;;;;;;;;;;13.40;99.90;;;;;;5104458;27;20312;-55
2022/09/04 02:59:48;;;;;;;;;;;13.40;99.90;;;;;;5103951;27;19916;-55
2022/09/04 03:02:30;;;;;;;;;;;13.40;99.90;;;;;;5124735;27;19919;-55
2022/09/04 03:05:18;;;;;;;;;;;13.40;99.90;;;;;;5123960;27;19912;-56
2022/09/04 03:08:00;;;;;;;;;;;13.40;99.90;;;;;;5104172;27;19930;-57
2022/09/04 03:10:43;;;;;;;;;;;13.40;99.90;;;;;;5104066;27;19912;-55
2022/09/04 03:13:30;;;;;;;;;;;13.40;99.90;;;;;;5125614;27;19912;-57
2022/09/04 03:16:16;;;;;;;;;;;13.50;99.90;;;;;;5125261;27;20282;-56
2022/09/04 03:19:12;;;;;;;;;;;13.50;99.90;;;;;;5124549;27;19926;-56
2022/09/04 03:21:53;;;;;;;;;;;13.50;99.90;;;;;;5125849;27;19911;-56
2022/09/04 03:24:37;;;;;;;;;;;13.50;99.90;;;;;;5084114;28;19913;-55
2022/09/04 03:27:19;;;;;;;;;;;13.50;99.90;;;;;;5097371;27;20229;-56
2022/09/04 03:30:02;;;;;;;;;;;13.50;99.90;;;;;;5124718;27;19918;-56
2022/09/04 03:32:47;;;;;;;;;;;13.50;99.90;;;;;;5125551;27;19915;-56
2022/09/04 03:35:31;;;;;;;;;;;13.60;99.90;;;;;;5084241;28;19912;-55
2022/09/04 03:38:16;;;;;;;;;;;13.60;99.90;;;;;;5110306;27;19912;-55
2022/09/04 03:40:59;;;;;;;;;;;13.60;99.90;;;;;;5125076;27;19911;-55
2022/09/04 03:43:53;;;;;;;;;;;13.60;99.90;;;;;;5104730;27;19916;-57
2022/09/04 03:46:39;;;;;;;;;;;13.60;99.90;;;;;;5123960;27;20391;-56
2022/09/04 03:49:25;;;;;;;;;;;13.60;99.90;;;;;;5121268;27;19920;-56
2022/09/04 03:52:07;;;;;;;;;;;13.70;99.90;;;;;;5104778;27;19926;-55
2022/09/04 03:54:59;;;;;;;;;;;13.70;99.90;;;;;;5125059;27;19911;-55
2022/09/04 03:57:46;;;;;;;;;;;13.70;99.90;;;;;;5104679;27;20300;-56
2022/09/04 04:00:30;;;;;;;;;;;13.80;99.90;;;;;;5103698;27;20393;-56
2022/09/04 04:03:21;;;;;;;;;;;13.80;99.90;;;;;;5084704;28;20196;-56
2022/09/04 04:06:06;;;;;;;;;;;13.80;99.90;;;;;;5125366;27;20377;-55
2022/09/04 04:08:55;;;;;;;;;;;13.80;99.90;;;;;;5105008;27;19912;-56
2022/09/04 04:11:44;;;;;;;;;;;13.90;99.90;;;;;;5104818;27;19912;-55
2022/09/04 04:14:36;;;;;;;;;;;13.90;99.90;;;;;;5125570;27;19915;-56
2022/09/04 04:17:23;;;;;;;;;;;14.00;99.90;;;;;;5125374;27;20331;-56
2022/09/04 04:20:08;;;;;;;;;;;14.10;99.90;;;;;;5125357;27;19918;-55
2022/09/04 04:23:06;;;;;;;;;;;14.10;99.90;;;;;;5105464;27;19946;-54
2022/09/04 04:25:50;;;;;;;;;;;14.20;99.90;;;;;;5104647;27;20270;-56
2022/09/04 04:28:40;;;;;;;;;;;14.30;99.90;;;;;;5107736;27;19912;-55
2022/09/04 04:31:33;;;;;;;;;;;14.30;99.90;;;;;;5125375;27;19915;-56
2022/09/04 04:34:18;;;;;;;;;;;14.30;99.90;;;;;;5125747;27;19919;-55
2022/09/04 04:37:06;;;;;;;;;;;14.40;99.90;;;;;;5125468;27;19912;-55
2022/09/04 04:39:51;;;;;;;;;;;14.40;99.90;;;;;;5124214;27;20480;-55
2022/09/04 04:42:35;;;;;;;;;;;14.40;99.90;;;;;;5125564;27;19922;-55
2022/09/04 04:48:37;;;;;;;;;;;14.50;99.90;;;;;;5109363;27;20324;-55
2022/09/04 04:51:30;;;;;;;;;;;14.50;99.90;;;;;;5125647;27;19912;-55
2022/09/04 04:54:21;;;;;;;;;;;14.50;99.90;;;;;;5084426;28;20096;-55
2022/09/04 04:57:04;;;;;;;;;;;14.40;99.90;;;;;;5104343;27;20229;-55
2022/09/04 04:59:48;;;;;;;;;;;14.50;99.90;;;;;;5104042;27;19915;-54
2022/09/04 05:02:30;;;;;;;;;;;14.50;99.90;;;;;;5104387;27;19912;-55
2022/09/04 05:05:13;;;;;;;;;;;14.50;99.90;;;;;;5102215;27;20436;-56
2022/09/04 05:08:01;;;;;;;;;;;14.60;99.90;;;;;;5133674;27;20305;-56
2022/09/04 05:10:44;;;;;;;;;;;14.60;99.90;;;;;;5123367;27;20300;-55
2022/09/04 05:13:27;;;;;;;;;;;14.60;99.90;;;;;;5124895;27;20794;-54
2022/09/04 05:16:10;;;;;;;;;;;14.60;99.90;;;;;;5104700;27;19912;-56
2022/09/04 05:18:55;;;;;;;;;;;14.60;99.90;;;;;;5103605;27;20426;-55
2022/09/04 05:21:41;;;;;;;;;;;14.70;99.90;;;;;;5104853;27;19957;-55
2022/09/04 05:24:25;;;;;;;;;;;14.70;99.90;;;;;;5105128;27;20426;-54
2022/09/04 05:27:10;;;;;;;;;;;14.80;99.90;;;;;;5104821;27;20394;-56
2022/09/04 05:29:52;;;;;;;;;;;14.80;99.90;;;;;;5125132;27;19922;-56
2022/09/04 05:32:33;;;;;;;;;;;14.80;99.90;;;;;;5155719;27;20372;-55
2022/09/04 05:35:16;;;;;;;;;;;14.80;99.90;;;;;;5125877;27;19926;-55
2022/09/04 05:38:01;;;;;;;;;;;14.90;99.90;;;;;;5112416;27;19916;-56
2022/09/04 05:40:52;;;;;;;;;;;14.90;99.90;;;;;;5124410;27;19911;-56
2022/09/04 05:43:40;;;;;;;;;;;15.00;99.90;;;;;;5104951;27;19926;-55
2022/09/04 05:46:26;;;;;;;;;;;15.00;99.90;;;;;;5104482;27;19912;-55
2022/09/04 05:49:15;;;;;;;;;;;15.10;99.90;;;;;;5124521;27;19957;-56
2022/09/04 05:52:02;;;;;;;;;;;15.10;99.90;;;;;;5125517;27;19919;-56
2022/09/04 05:54:52;;;;;;;;;;;15.20;99.90;;;;;;5104477;27;20415;-55
2022/09/04 05:57:39;;;;;;;;;;;15.20;99.90;;;;;;5091722;27;19916;-55
2022/09/04 06:00:19;;;;;;;;;;;15.30;99.90;;;;;;5101751;27;19916;-55
2022/09/04 06:03:08;;;;;;;;;;;15.40;99.90;;;;;;5103825;27;19927;-55
2022/09/04 06:05:57;;;;;;;;;;;15.50;99.90;;;;;;5123432;27;19927;-55
2022/09/04 06:08:50;;;;;;;;;;;15.60;99.90;;;;;;5105577;27;20733;-55
2022/09/04 06:11:46;;;;;;;;;;;15.80;99.90;;;;;;5103718;27;19912;-55
2022/09/04 06:14:38;;;;;;;;;;;15.90;99.90;;;;;;5125283;27;19911;-56
2022/09/04 06:17:24;;;;;;;;;;;15.90;99.90;;;;;;5117895;27;19916;-54
2022/09/04 06:20:21;;;;;;;;;;;16.10;99.90;;;;;;5124601;27;20393;-56
2022/09/04 06:23:09;;;;;;;;;;;16.10;99.90;;;;;;5104961;27;20434;-55
2022/09/04 06:25:58;;;;;;;;;;;16.30;99.90;;;;;;5125015;27;19922;-54
2022/09/04 06:28:46;;;;;;;;;;;16.40;99.90;;;;;;5086217;27;19970;-54
2022/09/04 06:31:41;;;;;;;;;;;16.50;99.90;;;;;;5104925;27;20459;-55
2022/09/04 06:34:26;;;;;;;;;;;16.40;99.90;;;;;;5125548;27;19912;-56
2022/09/04 06:37:12;;;;;;;;;;;16.50;99.90;;;;;;5099353;27;20320;-55
2022/09/04 06:40:01;;;;;;;;;;;16.60;99.90;;;;;;5104397;27;19912;-55
2022/09/04 06:42:52;;;;;;;;;;;16.60;99.90;;;;;;5125408;27;20350;-55
2022/09/04 06:45:41;;;;;;;;;;;16.70;99.90;;;;;;5125237;27;19935;-55
2022/09/04 06:48:27;;;;;;;;;;;16.80;99.90;;;;;;5088735;27;19966;-55
2022/09/04 06:51:17;;;;;;;;;;;16.80;99.90;;;;;;5124996;27;19918;-56
2022/09/04 06:54:05;;;;;;;;;;;16.80;99.90;;;;;;5105000;27;19912;-55
2022/09/04 06:56:55;;;;;;;;;;;16.90;99.90;;;;;;5121829;27;19920;-55
2022/09/04 06:59:44;;;;;;;;;;;17.00;99.90;;;;;;5124304;27;19912;-56
2022/09/04 07:02:30;;;;;;;;;;;17.10;99.90;;;;;;5084304;28;19913;-56
2022/09/04 07:05:15;;;;;;;;;;;17.20;99.90;;;;;;5104604;27;20363;-55
2022/09/04 07:08:00;;;;;;;;;;;17.20;99.90;;;;;;5112229;27;19920;-56
2022/09/04 07:10:43;;;;;;;;;;;17.20;99.90;;;;;;5145415;27;19912;-56
2022/09/04 07:13:39;;;;;;;;;;;17.20;99.90;;;;;;5125417;27;19912;-56
2022/09/04 07:16:30;;;;;;;;;;;17.20;99.90;;;;;;5125074;27;19912;-55
2022/09/04 07:19:31;;;;;;;;;;;17.40;99.90;;;;;;5104288;27;20122;-55
2022/09/04 07:22:16;;;;;;;;;;;17.50;99.90;;;;;;5124942;27;19916;-55
2022/09/04 07:25:10;;;;;;;;;;;17.70;99.90;;;;;;5125086;27;20347;-56
2022/09/04 07:27:59;;;;;;;;;;;17.80;99.90;;;;;;5125061;27;19916;-56
2022/09/04 07:30:43;;;;;;;;;;;18.00;99.90;;;;;;5104161;27;20631;-55
2022/09/04 07:33:31;;;;;;;;;;;18.20;99.90;;;;;;5125493;27;19920;-55
2022/09/04 07:36:15;;;;;;;;;;;18.20;99.90;;;;;;5084599;28;20382;-56
2022/09/04 07:38:58;;;;;;;;;;;18.40;99.90;;;;;;5104661;27;19912;-55
2022/09/04 07:41:43;;;;;;;;;;;18.40;99.90;;;;;;5125711;27;19911;-54
2022/09/04 07:44:28;;;;;;;;;;;18.60;99.90;;;;;;5163383;27;19953;-56
2022/09/04 07:47:13;;;;;;;;;;;19.00;99.90;;;;;;5078810;28;20267;-55
2022/09/04 07:50:00;;;;;;;;;;;19.10;99.90;;;;;;5125184;27;20376;-55
2022/09/04 07:52:58;;;;;;;;;;;19.10;99.90;;;;;;5125610;27;19912;-55
2022/09/04 07:55:40;;;;;;;;;;;19.20;99.90;;;;;;5105118;27;19926;-55
2022/09/04 07:58:31;;;;;;;;;;;19.10;99.90;;;;;;5084852;28;19912;-55
2022/09/04 08:01:22;;;;;;;;;;;19.10;99.90;;;;;;5105065;27;19957;-56
2022/09/04 08:04:13;;;;;;;;;;;19.10;99.90;;;;;;5125905;27;19915;-55
2022/09/04 08:06:56;;;;;;;;;;;19.20;99.90;;;;;;5101111;27;20048;-56
2022/09/04 08:09:48;;;;;;;;;;;19.20;99.90;;;;;;5146292;22;19924;-58
2022/09/04 08:12:43;;;;;;;;;;;19.30;99.90;;;;;;5125307;27;19911;-58
2022/09/04 08:15:29;;;;;;;;;;;19.50;99.90;;;;;;5125463;27;19912;-57
2022/09/04 08:18:18;;;;;;;;;;;19.50;99.90;;;;;;5125252;27;19916;-57
2022/09/04 08:21:03;;;;;;;;;;;19.60;99.90;;;;;;5124529;27;19912;-57
2022/09/04 08:24:00;;;;;;;;;;;19.70;99.90;;;;;;5125472;27;19911;-57
2022/09/04 08:26:45;;;;;;;;;;;19.60;99.90;;;;;;5125272;27;19912;-58
2022/09/04 08:29:38;;;;;;;;;;;19.80;99.90;;;;;;5093194;27;20327;-57
2022/09/04 08:32:27;;;;;;;;;;;20.30;99.90;;;;;;5125412;27;19912;-57
2022/09/04 08:35:10;;;;;;;;;;;20.50;99.90;;;;;;5125527;27;19915;-58
2022/09/04 08:37:54;;;;;;;;;;;20.60;99.90;;;;;;5125188;27;19920;-57
2022/09/04 08:40:48;;;;;;;;;;;20.70;99.90;;;;;;5145407;27;19911;-57
2022/09/04 08:43:31;;;;;;;;;;;20.60;99.90;;;;;;5121260;27;19916;-57
2022/09/04 08:46:24;;;;;;;;;;;20.70;99.90;;;;;;5114018;27;19920;-57
2022/09/04 08:49:37;;;;;;;;;;;20.50;99.90;;;;;;5095596;27;19926;-57
2022/09/04 08:52:34;;;;;;;;;;;20.40;99.90;;;;;;5122561;27;19919;-56
2022/09/04 08:55:44;;;;;;;;;;;20.60;99.90;;;;;;5102414;27;19919;-57
2022/09/04 08:58:49;;;;;;;;;;;20.60;99.90;;;;;;5100717;27;20533;-57
2022/09/04 09:01:39;;;;;;;;;;;20.70;99.90;;;;;;5125659;27;19916;-57
2022/09/04 09:04:36;;;;;;;;;;;20.90;99.90;;;;;;5108434;27;20119;-58
2022/09/04 09:07:34;;;;;;;;;;;21.30;99.90;;;;;;5091622;27;20265;-58
2022/09/04 09:10:33;;;;;;;;;;;21.60;99.90;;;;;;5131737;27;19915;-58
2022/09/04 09:13:36;;;;;;;;;;;21.70;99.90;;;;;;5144439;27;20537;-58
2022/09/04 09:16:24;;;;;;;;;;;21.90;99.90;;;;;;5084592;28;19912;-58
2022/09/04 09:19:18;;;;;;;;;;;21.80;99.90;;;;;;5115022;27;19927;-58
2022/09/04 09:22:18;;;;;;;;;;;21.60;99.90;;;;;;5099590;27;20381;-57
2022/09/04 09:25:14;;;;;;;;;;;21.70;99.90;;;;;;5123557;27;19946;-57
2022/09/04 09:28:10;;;;;;;;;;;21.90;99.90;;;;;;5121563;27;20320;-58
2022/09/04 09:31:06;;;;;;;;;;;22.30;99.90;;;;;;5079493;28;20384;-57
2022/09/04 09:33:59;;;;;;;;;;;22.50;99.90;;;;;;5101471;27;20483;-58
2022/09/04 09:37:01;;;;;;;;;;;22.70;99.90;;;;;;5069849;28;19920;-57
2022/09/04 09:40:05;;;;;;;;;;;22.70;99.90;;;;;;5110466;27;19912;-58
2022/09/04 09:43:03;;;;;;;;;;;23.00;99.90;;;;;;5104041;27;19985;-56
2022/09/04 09:45:59;;;;;;;;;;;23.10;99.90;;;;;;5104669;27;20257;-57
2022/09/04 09:49:06;;;;;;;;;;;23.30;99.90;;;;;;5104071;27;19919;-57
2022/09/04 09:52:02;;;;;;;;;;;23.80;99.90;;;;;;5084536;28;20381;-57
2022/09/04 09:55:00;;;;;;;;;;;23.90;99.90;;;;;;5084164;28;19912;-57
2022/09/04 09:57:50;;;;;;;;;;;24.30;99.90;;;;;;5122873;27;19915;-58
2022/09/04 10:00:35;;;;;;;;;;;24.40;99.90;;;;;;5103117;27;19912;-57
2022/09/04 10:03:29;;;;;;;;;;;23.80;99.90;;;;;;5124909;27;19912;-57
2022/09/04 10:06:28;;;;;;;;;;;23.70;99.90;;;;;;5125812;27;20315;-57
2022/09/04 10:09:30;;;;;;;;;;;24.10;99.90;;;;;;5115910;27;19916;-57
2022/09/04 10:12:27;;;;;;;;;;;24.00;99.90;;;;;;5105213;27;19912;-57
2022/09/04 10:15:24;;;;;;;;;;;24.20;99.90;;;;;;5104912;27;19926;-57
2022/09/04 10:18:14;;;;;;;;;;;24.30;99.90;;;;;;5125515;27;19919;-57
2022/09/04 10:21:11;;;;;;;;;;;24.30;99.90;;;;;;5124768;27;19912;-57
2022/09/04 10:24:06;;;;;;;;;;;23.80;99.90;;;;;;5105625;27;19926;-57
2022/09/04 10:27:19;;;;;;;;;;;23.90;99.90;;;;;;5125120;27;19911;-55
2022/09/04 10:30:07;;;;;;;;;;;24.30;99.90;;;;;;5104471;27;19926;-58
2022/09/04 10:33:04;;;;;;;;;;;24.40;99.90;;;;;;5104750;27;19913;-57
2022/09/04 10:36:09;;;;;;;;;;;24.50;99.90;;;;;;5125142;27;19912;-57
2022/09/04 10:42:09;;;;;;;;;;;23.40;99.90;;;;;;5125377;27;19918;-57
2022/09/04 10:45:09;;;;;;;;;;;22.70;99.90;;;;;;5125843;27;19916;-58
2022/09/04 10:48:07;;;;;;;;;;;22.30;99.90;;;;;;5104562;27;19953;-58
2022/09/04 10:51:04;;;;;;;;;;;21.90;99.90;;;;;;5083202;28;19920;-58
2022/09/04 10:54:04;;;;;;;;;;;21.50;99.90;;;;;;5125253;27;19915;-57
2022/09/04 10:56:52;;;;;;;;;;;21.30;99.90;;;;;;5123847;27;19915;-57
2022/09/04 10:59:46;;;;;;;;;;;21.20;99.90;;;;;;5103512;27;19912;-57
2022/09/04 11:02:37;;;;;;;;;;;21.10;99.90;;;;;;5104672;27;19912;-57
2022/09/04 11:05:35;;;;;;;;;;;20.90;99.90;;;;;;5152465;27;19915;-57
2022/09/04 11:08:24;;;;;;;;;;;20.90;99.90;;;;;;5104493;27;19926;-57
2022/09/04 11:11:13;;;;;;;;;;;20.70;99.90;;;;;;5104674;27;19957;-57
2022/09/04 11:14:11;;;;;;;;;;;20.60;99.90;;;;;;5105113;27;19926;-57
2022/09/04 11:17:11;;;;;;;;;;;20.70;99.90;;;;;;5117419;27;19941;-57
2022/09/04 11:20:11;;;;;;;;;;;20.90;99.90;;;;;;5077265;28;19924;-57
2022/09/04 11:23:05;;;;;;;;;;;21.10;99.90;;;;;;5152185;27;19930;-57
2022/09/04 11:26:04;;;;;;;;;;;21.10;99.90;;;;;;5103920;27;19930;-57
2022/09/04 11:29:01;;;;;;;;;;;21.20;99.90;;;;;;5104900;27;19961;-57
2022/09/04 11:32:02;;;;;;;;;;;21.20;99.90;;;;;;5083714;28;19916;-55
2022/09/04 11:35:07;;;;;;;;;;;21.20;99.90;;;;;;5126016;27;20369;-57
2022/09/04 11:38:01;;;;;;;;;;;21.10;99.90;;;;;;5104765;27;19915;-58
2022/09/04 11:40:59;;;;;;;;;;;21.10;99.90;;;;;;5083269;28;19912;-58
2022/09/04 11:43:53;;;;;;;;;;;21.20;99.90;;;;;;5104278;27;20522;-57
2022/09/04 11:46:40;;;;;;;;;;;21.30;99.90;;;;;;5104126;27;19912;-55
2022/09/04 11:49:44;;;;;;;;;;;21.40;99.90;;;;;;5103691;27;19945;-55
2022/09/04 11:52:35;;;;;;;;;;;21.40;99.90;;;;;;5084473;28;19913;-57
2022/09/04 11:55:40;;;;;;;;;;;21.60;99.90;;;;;;5104490;27;19912;-57
2022/09/04 11:58:33;;;;;;;;;;;21.70;99.90;;;;;;5104421;27;19930;-56
2022/09/04 12:01:20;;;;;;;;;;;21.60;99.90;;;;;;5082063;28;19913;-55
2022/09/04 12:04:11;;;;;;;;;;;21.60;99.90;;;;;;5094389;27;19916;-57
2022/09/04 12:07:00;;;;;;;;;;;21.70;99.90;;;;;;5096170;27;20382;-57
2022/09/04 12:09:53;;;;;;;;;;;21.70;99.90;;;;;;5069691;28;19912;-57
2022/09/04 12:12:47;;;;;;;;;;;21.80;99.90;;;;;;5083695;28;19916;-57
2022/09/04 12:15:33;;;;;;;;;;;21.90;99.90;;;;;;5104215;27;19926;-58
2022/09/04 12:18:32;;;;;;;;;;;22.10;99.90;;;;;;5082968;28;20255;-56
2022/09/04 12:21:24;;;;;;;;;;;22.30;99.90;;;;;;5084152;28;19912;-57
2022/09/04 12:24:21;;;;;;;;;;;22.40;99.90;;;;;;5125242;27;19915;-58
2022/09/04 12:27:10;;;;;;;;;;;22.20;99.90;;;;;;5104558;27;20438;-55
2022/09/04 12:30:03;;;;;;;;;;;22.20;99.90;;;;;;5089852;27;20398;-58
2022/09/04 12:33:15;;;;;;;;;;;22.30;99.90;;;;;;5104373;27;19957;-57
2022/09/04 12:36:13;;;;;;;;;;;22.50;99.90;;;;;;5104803;27;19912;-57
2022/09/04 12:39:02;;;;;;;;;;;22.70;99.90;;;;;;5124173;27;19912;-57
2022/09/04 12:41:46;;;;;;;;;;;22.70;99.90;;;;;;5105221;27;20438;-57
2022/09/04 12:44:31;;;;;;;;;;;22.70;99.90;;;;;;5105107;27;19926;-57
2022/09/04 12:47:23;;;;;;;;;;;22.70;99.90;;;;;;5124870;27;19916;-57
2022/09/04 12:50:08;;;;;;;;;;;22.70;99.90;;;;;;5083743;28;20297;-58
2022/09/04 12:53:03;;;;;;;;;;;22.70;99.90;;;;;;5125276;27;19918;-57
2022/09/04 12:55:48;;;;;;;;;;;22.80;99.90;;;;;;5084109;28;19916;-58
2022/09/04 12:58:34;;;;;;;;;;;22.90;99.90;;;;;;5121847;27;19924;-57
2022/09/04 13:01:20;;;;;;;;;;;23.00;99.90;;;;;;5155964;27;19912;-57
2022/09/04 13:04:05;;;;;;;;;;;23.00;99.90;;;;;;5075332;28;19920;-57
2022/09/04 13:06:48;;;;;;;;;;;23.00;99.90;;;;;;5102330;27;19946;-57
2022/09/04 13:09:34;;;;;;;;;;;23.10;99.90;;;;;;5135269;27;19915;-57
2022/09/04 13:12:21;;;;;;;;;;;23.20;99.90;;;;;;5096354;27;19926;-57
2022/09/04 13:15:18;;;;;;;;;;;23.20;99.90;;;;;;5125968;27;19915;-57
2022/09/04 13:18:07;;;;;;;;;;;23.30;99.90;;;;;;5124455;27;19920;-56
2022/09/04 13:20:52;;;;;;;;;;;23.50;99.90;;;;;;5124014;27;19920;-57
2022/09/04 13:23:40;;;;;;;;;;;23.40;99.90;;;;;;5104653;27;20410;-57
2022/09/04 13:26:28;;;;;;;;;;;23.10;99.90;;;;;;5103886;27;19912;-57
2022/09/04 13:29:15;;;;;;;;;;;23.00;99.90;;;;;;5099285;27;20401;-57
2022/09/04 13:32:09;;;;;;;;;;;23.00;99.90;;;;;;5104457;27;19912;-57
2022/09/04 13:34:57;;;;;;;;;;;23.10;99.90;;;;;;5104846;27;19934;-58
2022/09/04 13:37:44;;;;;;;;;;;23.10;99.90;;;;;;5084164;28;19924;-57
2022/09/04 13:40:37;;;;;;;;;;;23.10;99.90;;;;;;5099348;27;19969;-57
2022/09/04 13:43:25;;;;;;;;;;;23.10;99.90;;;;;;5104861;27;20324;-57
2022/09/04 13:46:10;;;;;;;;;;;23.10;99.90;;;;;;5104909;27;20426;-57
2022/09/04 13:48:52;;;;;;;;;;;23.20;99.90;;;;;;5141431;27;19915;-57
2022/09/04 13:51:34;;;;;;;;;;;23.30;99.90;;;;;;5104818;27;19961;-57
2022/09/04 13:54:18;;;;;;;;;;;23.50;99.90;;;;;;5124500;27;19920;-57
2022/09/04 13:57:03;;;;;;;;;;;23.50;99.90;;;;;;5103164;27;19916;-57
2022/09/04 13:59:48;;;;;;;;;;;23.60;99.90;;;;;;5099851;27;19912;-57
2022/09/04 14:02:30;;;;;;;;;;;23.70;99.90;;;;;;5083296;28;19920;-57
2022/09/04 14:05:12;;;;;;;;;;;23.80;99.90;;;;;;5125019;27;19915;-57
2022/09/04 14:07:57;;;;;;;;;;;23.80;99.90;;;;;;5104175;27;19920;-57
2022/09/04 14:10:58;;;;;;;;;;;23.90;99.90;;;;;;5174050;22;19968;-54
2022/09/04 14:13:46;;;;;;;;;;;24.00;99.90;;;;;;5084826;28;19913;-56
2022/09/04 14:16:26;;;;;;;;;;;24.10;99.90;;;;;;5104682;27;19912;-56
2022/09/04 14:19:16;;;;;;;;;;;24.10;99.90;;;;;;5101936;27;19981;-56
2022/09/04 14:22:11;;;;;;;;;;;24.10;99.90;;;;;;5104459;27;19930;-56
2022/09/04 14:24:56;;;;;;;;;;;24.10;99.90;;;;;;5103772;27;19926;-56
2022/09/04 14:27:38;;;;;;;;;;;24.20;99.90;;;;;;5125601;27;20450;-56
2022/09/04 14:30:21;;;;;;;;;;;24.30;99.90;;;;;;5122673;27;19916;-56
2022/09/04 14:33:08;;;;;;;;;;;24.30;99.90;;;;;;5124487;27;19916;-56
2022/09/04 14:35:58;;;;;;;;;;;24.30;99.90;;;;;;5125308;27;20323;-55
2022/09/04 14:38:48;;;;;;;;;;;24.30;99.90;;;;;;5084207;28;19916;-55
2022/09/04 14:41:34;;;;;;;;;;;24.40;99.90;;;;;;5124710;27;19915;-56
2022/09/04 14:44:20;;;;;;;;;;;24.40;99.90;;;;;;5125355;27;19912;-56
2022/09/04 14:47:06;;;;;;;;;;;24.30;99.90;;;;;;5124847;27;20164;-56
2022/09/04 14:49:48;;;;;;;;;;;24.30;99.90;;;;;;5117572;27;20348;-56
2022/09/04 14:52:29;;;;;;;;;;;24.30;99.90;;;;;;5125849;27;19915;-56
2022/09/04 14:55:13;;;;;;;;;;;24.30;99.90;;;;;;5124051;27;19949;-56
2022/09/04 14:57:55;;;;;;;;;;;24.40;99.90;;;;;;5150684;27;19911;-55
2022/09/04 15:00:51;;;;;;;;;;;24.30;99.90;;;;;;5094252;27;20320;-56
2022/09/04 15:03:34;;;;;;;;;;;24.20;99.90;;;;;;5118317;27;19912;-56
2022/09/04 15:06:15;;;;;;;;;;;24.10;99.90;;;;;;5109641;27;20489;-56
2022/09/04 15:08:55;;;;;;;;;;;24.00;99.90;;;;;;5081181;28;19913;-56
2022/09/04 15:11:35;;;;;;;;;;;23.90;99.90;;;;;;5124839;27;19915;-56
2022/09/04 15:14:23;;;;;;;;;;;23.90;99.90;;;;;;5125097;27;20384;-56
2022/09/04 15:17:06;;;;;;;;;;;23.80;99.90;;;;;;5123707;27;19912;-56
2022/09/04 15:19:48;;;;;;;;;;;23.70;99.90;;;;;;5102755;27;19920;-56
2022/09/04 15:22:32;;;;;;;;;;;23.60;99.90;;;;;;5084010;28;19924;-56
2022/09/04 15:25:31;;;;;;;;;;;23.50;99.90;;;;;;5103190;27;19946;-56
2022/09/04 15:28:15;;;;;;;;;;;23.40;99.90;;;;;;5124432;27;20375;-56
2022/09/04 15:31:11;;;;;;;;;;;23.40;99.90;;;;;;5120880;27;20392;-56
2022/09/04 15:33:58;;;;;;;;;;;23.50;99.90;;;;;;5145034;27;19916;-56
2022/09/04 15:36:39;;;;;;;;;;;23.30;99.90;;;;;;5104239;27;19926;-56
2022/09/04 15:39:27;;;;;;;;;;;23.20;99.90;;;;;;5165412;27;19925;-56
2022/09/04 15:42:11;;;;;;;;;;;23.20;99.90;;;;;;5104692;27;19926;-56
2022/09/04 15:44:51;;;;;;;;;;;23.30;99.90;;;;;;5105066;27;19912;-56
2022/09/04 15:47:44;;;;;;;;;;;23.60;99.90;;;;;;5124705;27;20381;-56
2022/09/04 15:50:27;;;;;;;;;;;23.80;99.90;;;;;;5111987;27;19920;-56
2022/09/04 15:53:14;;;;;;;;;;;23.90;99.90;;;;;;5126189;27;19911;-56
2022/09/04 15:56:08;;;;;;;;;;;23.90;99.90;;;;;;5104597;27;20130;-56
2022/09/04 15:58:51;;;;;;;;;;;23.80;99.90;;;;;;5124534;27;19921;-56
2022/09/04 16:01:38;;;;;;;;;;;23.80;99.90;;;;;;5125290;27;19922;-56
2022/09/04 16:04:25;;;;;;;;;;;23.90;99.90;;;;;;5125756;27;20142;-56
2022/09/04 16:07:19;;;;;;;;;;;23.80;99.90;;;;;;5104925;27;19912;-56
2022/09/04 16:10:01;;;;;;;;;;;23.50;99.90;;;;;;5153973;27;19911;-56
2022/09/04 16:12:48;;;;;;;;;;;23.20;99.90;;;;;;5125525;27;20111;-56
2022/09/04 16:15:32;;;;;;;;;;;23.00;99.90;;;;;;5125000;27;19915;-56
2022/09/04 16:18:16;;;;;;;;;;;22.70;99.90;;;;;;5104420;27;19926;-56
2022/09/04 16:20:57;;;;;;;;;;;22.50;99.90;;;;;;5158014;27;19917;-56
2022/09/04 16:23:39;;;;;;;;;;;22.30;99.90;;;;;;5104587;27;20369;-56
2022/09/04 16:26:20;;;;;;;;;;;22.10;99.90;;;;;;5125261;27;19926;-56
2022/09/04 16:29:02;;;;;;;;;;;21.80;99.90;;;;;;5150604;27;19911;-56